sensor_id;sensor_type;location;lat;lon;timestamp;pressure;altitude;pressure_sealevel;temperature;humidity
19150;BME280;9707;49.158;8.632;2023-07-13T00:02:15;100359.66;;;30.38;32.44
19150;BME280;9707;49.158;8.632;2023-07-13T00:04:40;100370.81;;;30.37;32.54
19150;BME280;9707;49.158;8.632;2023-07-13T00:07:07;100374.63;;;30.36;32.32
19150;BME280;9707;49.158;8.632;2023-07-13T00:09:32;100373.75;;;30.35;32.58
19150;BME280;9707;49.158;8.632;2023-07-13T00:11:58;100376.69;;;30.34;32.21
19150;BME280;9707;49.158;8.632;2023-07-13T00:14:25;100378.59;;;30.33;32.40
19150;BME280;9707;49.158;8.632;2023-07-13T00:16:51;100366.72;;;30.33;32.68
19150;BME280;9707;49.158;8.632;2023-07-13T00:19:16;100365.22;;;30.30;32.78
19150;BME280;9707;49.158;8.632;2023-07-13T00:21:42;100366.06;;;30.31;32.96
19150;BME280;9707;49.158;8.632;2023-07-13T00:24:11;100350.81;;;30.28;32.68
19150;BME280;9707;49.158;8.632;2023-07-13T00:26:38;100364.56;;;30.28;32.80
19150;BME280;9707;49.158;8.632;2023-07-13T00:29:05;100357.34;;;30.27;33.12
19150;BME280;9707;49.158;8.632;2023-07-13T00:31:33;100350.34;;;30.25;32.91
19150;BME280;9707;49.158;8.632;2023-07-13T00:33:59;100356.84;;;30.24;32.92
19150;BME280;9707;49.158;8.632;2023-07-13T00:36:25;100356.84;;;30.24;32.70
19150;BME280;9707;49.158;8.632;2023-07-13T00:38:51;100358.06;;;30.21;33.35
19150;BME280;9707;49.158;8.632;2023-07-13T00:41:16;100358.28;;;30.20;32.84
19150;BME280;9707;49.158;8.632;2023-07-13T00:43:41;100355.72;;;30.18;33.05
19150;BME280;9707;49.158;8.632;2023-07-13T00:46:20;100365.84;;;30.18;33.00
19150;BME280;9707;49.158;8.632;2023-07-13T00:48:47;100355.25;;;30.15;32.75
19150;BME280;9707;49.158;8.632;2023-07-13T00:51:15;100356.25;;;30.14;32.98
19150;BME280;9707;49.158;8.632;2023-07-13T00:53:42;100355.59;;;30.12;32.81
19150;BME280;9707;49.158;8.632;2023-07-13T00:56:08;100360.41;;;30.10;33.09
19150;BME280;9707;49.158;8.632;2023-07-13T00:58:34;100363.16;;;30.10;32.94
19150;BME280;9707;49.158;8.632;2023-07-13T01:01:00;100354.22;;;30.08;32.99
19150;BME280;9707;49.158;8.632;2023-07-13T01:03:25;100359.88;;;30.06;33.00
19150;BME280;9707;49.158;8.632;2023-07-13T01:05:51;100367.28;;;30.06;32.97
19150;BME280;9707;49.158;8.632;2023-07-13T01:08:19;100363.84;;;30.04;33.20
19150;BME280;9707;49.158;8.632;2023-07-13T01:10:56;100365.94;;;30.02;33.04
19150;BME280;9707;49.158;8.632;2023-07-13T01:13:22;100368.03;;;30.00;32.82
19150;BME280;9707;49.158;8.632;2023-07-13T01:15:49;100368.38;;;29.97;33.70
19150;BME280;9707;49.158;8.632;2023-07-13T01:18:22;100368.38;;;29.97;33.37
19150;BME280;9707;49.158;8.632;2023-07-13T01:20:57;100366.69;;;29.96;33.73
19150;BME280;9707;49.158;8.632;2023-07-13T01:23:24;100371.31;;;29.95;33.63
19150;BME280;9707;49.158;8.632;2023-07-13T01:25:51;100380.41;;;29.96;33.20
19150;BME280;9707;49.158;8.632;2023-07-13T01:28:17;100364.13;;;29.94;33.73
19150;BME280;9707;49.158;8.632;2023-07-13T01:30:44;100371.53;;;29.94;33.68
19150;BME280;9707;49.158;8.632;2023-07-13T01:33:12;100378.91;;;29.93;33.53
19150;BME280;9707;49.158;8.632;2023-07-13T01:35:38;100374.44;;;29.92;33.09
19150;BME280;9707;49.158;8.632;2023-07-13T01:38:04;100372.91;;;29.90;33.21
19150;BME280;9707;49.158;8.632;2023-07-13T01:40:29;100375.66;;;29.90;33.44
19150;BME280;9707;49.158;8.632;2023-07-13T01:42:55;100368.47;;;29.89;33.50
19150;BME280;9707;49.158;8.632;2023-07-13T01:45:20;100376.03;;;29.87;33.60
19150;BME280;9707;49.158;8.632;2023-07-13T01:47:46;100366.06;;;29.86;33.41
19150;BME280;9707;49.158;8.632;2023-07-13T01:50:11;100375.53;;;29.83;33.52
19150;BME280;9707;49.158;8.632;2023-07-13T01:52:36;100364.72;;;29.82;33.17
19150;BME280;9707;49.158;8.632;2023-07-13T01:55:02;100375.06;;;29.80;33.65
19150;BME280;9707;49.158;8.632;2023-07-13T01:57:27;100368.88;;;29.78;33.41
19150;BME280;9707;49.158;8.632;2023-07-13T01:59:53;100373.53;;;29.77;33.51
19150;BME280;9707;49.158;8.632;2023-07-13T02:02:18;100377.31;;;29.76;33.43
19150;BME280;9707;49.158;8.632;2023-07-13T02:04:43;100372.00;;;29.75;33.64
19150;BME280;9707;49.158;8.632;2023-07-13T02:07:09;100384.03;;;29.74;33.37
19150;BME280;9707;49.158;8.632;2023-07-13T02:09:34;100364.09;;;29.72;33.38
19150;BME280;9707;49.158;8.632;2023-07-13T02:12:00;100373.22;;;29.72;33.21
19150;BME280;9707;49.158;8.632;2023-07-13T02:14:25;100372.53;;;29.70;33.36
19150;BME280;9707;49.158;8.632;2023-07-13T02:16:50;100373.56;;;29.69;33.38
19150;BME280;9707;49.158;8.632;2023-07-13T02:19:18;100378.22;;;29.69;33.70
19150;BME280;9707;49.158;8.632;2023-07-13T02:21:44;100375.81;;;29.66;33.77
19150;BME280;9707;49.158;8.632;2023-07-13T02:24:09;100374.13;;;29.65;33.62
19150;BME280;9707;49.158;8.632;2023-07-13T02:26:34;100374.28;;;29.63;33.35
19150;BME280;9707;49.158;8.632;2023-07-13T02:29:00;100382.72;;;29.62;33.51
19150;BME280;9707;49.158;8.632;2023-07-13T02:31:25;100378.25;;;29.61;33.27
19150;BME280;9707;49.158;8.632;2023-07-13T02:33:50;100385.84;;;29.59;33.27
19150;BME280;9707;49.158;8.632;2023-07-13T02:36:16;100387.88;;;29.57;33.76
19150;BME280;9707;49.158;8.632;2023-07-13T02:38:42;100382.41;;;29.57;33.66
19150;BME280;9707;49.158;8.632;2023-07-13T02:41:08;100382.56;;;29.55;33.66
19150;BME280;9707;49.158;8.632;2023-07-13T02:43:35;100396.28;;;29.55;33.64
19150;BME280;9707;49.158;8.632;2023-07-13T02:46:01;100395.47;;;29.55;34.13
19150;BME280;9707;49.158;8.632;2023-07-13T02:48:32;100393.72;;;29.54;33.84
19150;BME280;9707;49.158;8.632;2023-07-13T02:50:57;100385.84;;;29.51;33.59
19150;BME280;9707;49.158;8.632;2023-07-13T02:53:23;100391.31;;;29.51;33.57
19150;BME280;9707;49.158;8.632;2023-07-13T02:55:48;100388.75;;;29.49;33.69
19150;BME280;9707;49.158;8.632;2023-07-13T02:58:13;100388.94;;;29.48;33.54
19150;BME280;9707;49.158;8.632;2023-07-13T03:00:45;100386.38;;;29.46;33.84
19150;BME280;9707;49.158;8.632;2023-07-13T03:03:12;100388.25;;;29.46;33.77
19150;BME280;9707;49.158;8.632;2023-07-13T03:05:40;100389.31;;;29.45;33.48
19150;BME280;9707;49.158;8.632;2023-07-13T03:08:07;100398.59;;;29.44;33.83
19150;BME280;9707;49.158;8.632;2023-07-13T03:10:32;100399.59;;;29.43;33.83
19150;BME280;9707;49.158;8.632;2023-07-13T03:12:58;100390.69;;;29.41;33.63
19150;BME280;9707;49.158;8.632;2023-07-13T03:15:23;100384.34;;;29.40;33.79
19150;BME280;9707;49.158;8.632;2023-07-13T03:17:48;100386.25;;;29.40;33.73
19150;BME280;9707;49.158;8.632;2023-07-13T03:20:14;100384.53;;;29.39;33.71
19150;BME280;9707;49.158;8.632;2023-07-13T03:22:39;100387.47;;;29.37;33.79
19150;BME280;9707;49.158;8.632;2023-07-13T03:25:05;100381.97;;;29.37;34.01
19150;BME280;9707;49.158;8.632;2023-07-13T03:27:30;100390.38;;;29.36;33.67
19150;BME280;9707;49.158;8.632;2023-07-13T03:29:56;100400.47;;;29.35;33.89
19150;BME280;9707;49.158;8.632;2023-07-13T03:32:21;100402.38;;;29.35;33.87
19150;BME280;9707;49.158;8.632;2023-07-13T03:34:46;100397.94;;;29.34;34.12
19150;BME280;9707;49.158;8.632;2023-07-13T03:37:11;100400.84;;;29.32;33.78
19150;BME280;9707;49.158;8.632;2023-07-13T03:39:37;100403.78;;;29.31;33.57
19150;BME280;9707;49.158;8.632;2023-07-13T03:42:02;100410.47;;;29.28;33.69
19150;BME280;9707;49.158;8.632;2023-07-13T03:44:27;100408.78;;;29.27;33.84
19150;BME280;9707;49.158;8.632;2023-07-13T03:46:53;100410.66;;;29.27;34.37
19150;BME280;9707;49.158;8.632;2023-07-13T03:49:18;100407.06;;;29.26;33.85
19150;BME280;9707;49.158;8.632;2023-07-13T03:51:44;100411.69;;;29.26;34.23
19150;BME280;9707;49.158;8.632;2023-07-13T03:54:09;100409.97;;;29.25;33.86
19150;BME280;9707;49.158;8.632;2023-07-13T03:56:34;100422.16;;;29.22;33.62
19150;BME280;9707;49.158;8.632;2023-07-13T03:59:00;100425.09;;;29.21;34.00
19150;BME280;9707;49.158;8.632;2023-07-13T04:01:25;100421.69;;;29.19;33.66
19150;BME280;9707;49.158;8.632;2023-07-13T04:03:51;100421.69;;;29.19;34.20
19150;BME280;9707;49.158;8.632;2023-07-13T04:06:22;100427.34;;;29.17;33.69
19150;BME280;9707;49.158;8.632;2023-07-13T04:08:50;100430.94;;;29.18;34.19
19150;BME280;9707;49.158;8.632;2023-07-13T04:11:17;100424.75;;;29.16;34.03
19150;BME280;9707;49.158;8.632;2023-07-13T04:13:42;100426.47;;;29.17;33.93
19150;BME280;9707;49.158;8.632;2023-07-13T04:16:08;100433.84;;;29.16;33.64
19150;BME280;9707;49.158;8.632;2023-07-13T04:18:33;100431.44;;;29.13;33.77
19150;BME280;9707;49.158;8.632;2023-07-13T04:20:58;100436.09;;;29.13;33.95
19150;BME280;9707;49.158;8.632;2023-07-13T04:23:23;100434.56;;;29.10;33.88
19150;BME280;9707;49.158;8.632;2023-07-13T04:25:51;100432.00;;;29.09;33.93
19150;BME280;9707;49.158;8.632;2023-07-13T04:28:19;100442.09;;;29.08;33.81
19150;BME280;9707;49.158;8.632;2023-07-13T04:30:45;100434.03;;;29.07;33.95
19150;BME280;9707;49.158;8.632;2023-07-13T04:33:10;100437.66;;;29.07;34.02
19150;BME280;9707;49.158;8.632;2023-07-13T04:35:36;100445.88;;;29.07;34.25
19150;BME280;9707;49.158;8.632;2023-07-13T04:38:02;100446.75;;;29.08;34.80
19150;BME280;9707;49.158;8.632;2023-07-13T04:40:28;100444.84;;;29.08;34.31
19150;BME280;9707;49.158;8.632;2023-07-13T04:42:54;100445.00;;;29.07;34.29
19150;BME280;9707;49.158;8.632;2023-07-13T04:45:19;100456.84;;;29.07;34.42
19150;BME280;9707;49.158;8.632;2023-07-13T04:47:45;100454.97;;;29.08;34.55
19150;BME280;9707;49.158;8.632;2023-07-13T04:50:12;100455.97;;;29.07;34.50
19150;BME280;9707;49.158;8.632;2023-07-13T04:52:40;100455.97;;;29.07;34.29
19150;BME280;9707;49.158;8.632;2023-07-13T04:55:06;100457.03;;;29.06;33.61
19150;BME280;9707;49.158;8.632;2023-07-13T04:57:31;100454.66;;;29.03;33.13
19150;BME280;9707;49.158;8.632;2023-07-13T04:59:57;100459.59;;;28.99;33.21
19150;BME280;9707;49.158;8.632;2023-07-13T05:02:26;100462.84;;;28.95;33.20
19150;BME280;9707;49.158;8.632;2023-07-13T05:04:52;100465.09;;;28.91;33.21
19150;BME280;9707;49.158;8.632;2023-07-13T05:07:17;100460.09;;;28.87;33.34
19150;BME280;9707;49.158;8.632;2023-07-13T05:09:42;100455.31;;;28.81;33.42
19150;BME280;9707;49.158;8.632;2023-07-13T05:12:08;100452.59;;;28.81;33.38
19150;BME280;9707;49.158;8.632;2023-07-13T05:14:34;100463.91;;;28.78;33.38
19150;BME280;9707;49.158;8.632;2023-07-13T05:17:00;100463.22;;;28.76;33.48
19150;BME280;9707;49.158;8.632;2023-07-13T05:19:25;100467.00;;;28.75;33.73
19150;BME280;9707;49.158;8.632;2023-07-13T05:21:50;100464.41;;;28.73;33.74
19150;BME280;9707;49.158;8.632;2023-07-13T05:24:16;100473.69;;;28.72;33.69
19150;BME280;9707;49.158;8.632;2023-07-13T05:26:41;100470.28;;;28.70;33.65
19150;BME280;9707;49.158;8.632;2023-07-13T05:29:06;100471.47;;;28.68;33.77
19150;BME280;9707;49.158;8.632;2023-07-13T05:31:31;100476.94;;;28.68;33.80
19150;BME280;9707;49.158;8.632;2023-07-13T05:33:56;100475.22;;;28.67;34.10
19150;BME280;9707;49.158;8.632;2023-07-13T05:36:22;100479.00;;;28.66;34.00
19150;BME280;9707;49.158;8.632;2023-07-13T05:38:47;100477.28;;;28.65;33.90
19150;BME280;9707;49.158;8.632;2023-07-13T05:41:12;100474.72;;;28.63;34.17
19150;BME280;9707;49.158;8.632;2023-07-13T05:43:37;100488.25;;;28.65;34.31
19150;BME280;9707;49.158;8.632;2023-07-13T05:46:03;100482.75;;;28.65;34.36
19150;BME280;9707;49.158;8.632;2023-07-13T05:48:28;100479.16;;;28.64;34.35
19150;BME280;9707;49.158;8.632;2023-07-13T05:50:53;100479.84;;;28.66;34.56
19150;BME280;9707;49.158;8.632;2023-07-13T05:53:19;100482.44;;;28.68;34.79
19150;BME280;9707;49.158;8.632;2023-07-13T05:55:45;100490.28;;;28.71;34.62
19150;BME280;9707;49.158;8.632;2023-07-13T05:58:16;100486.72;;;28.70;34.63
19150;BME280;9707;49.158;8.632;2023-07-13T06:00:42;100494.41;;;28.75;34.91
19150;BME280;9707;49.158;8.632;2023-07-13T06:03:07;100494.25;;;28.76;34.69
19150;BME280;9707;49.158;8.632;2023-07-13T06:05:33;100500.56;;;28.77;34.80
19150;BME280;9707;49.158;8.632;2023-07-13T06:07:59;100502.31;;;28.78;34.76
19150;BME280;9707;49.158;8.632;2023-07-13T06:10:25;100496.81;;;28.78;34.49
19150;BME280;9707;49.158;8.632;2023-07-13T06:12:50;100502.97;;;28.80;34.21
19150;BME280;9707;49.158;8.632;2023-07-13T06:15:16;100512.91;;;28.81;34.22
19150;BME280;9707;49.158;8.632;2023-07-13T06:17:41;100516.69;;;28.80;34.07
19150;BME280;9707;49.158;8.632;2023-07-13T06:20:07;100522.16;;;28.80;33.78
19150;BME280;9707;49.158;8.632;2023-07-13T06:22:32;100522.34;;;28.78;34.05
19150;BME280;9707;49.158;8.632;2023-07-13T06:24:57;100521.50;;;28.78;33.77
19150;BME280;9707;49.158;8.632;2023-07-13T06:27:23;100528.69;;;28.79;33.26
19150;BME280;9707;49.158;8.632;2023-07-13T06:29:48;100526.97;;;28.78;32.63
19150;BME280;9707;49.158;8.632;2023-07-13T06:32:13;100529.72;;;28.78;32.91
19150;BME280;9707;49.158;8.632;2023-07-13T06:34:38;100526.97;;;28.78;32.96
19150;BME280;9707;49.158;8.632;2023-07-13T06:37:04;100524.91;;;28.80;32.98
19150;BME280;9707;49.158;8.632;2023-07-13T06:39:29;100527.66;;;28.80;31.56
19150;BME280;9707;49.158;8.632;2023-07-13T06:41:54;100534.00;;;28.80;31.15
19150;BME280;9707;49.158;8.632;2023-07-13T06:44:20;100540.31;;;28.81;31.16
19150;BME280;9707;49.158;8.632;2023-07-13T06:46:45;100539.50;;;28.80;30.92
19150;BME280;9707;49.158;8.632;2023-07-13T06:49:10;100547.53;;;28.82;31.43
19150;BME280;9707;49.158;8.632;2023-07-13T06:51:36;100541.19;;;28.81;31.33
19150;BME280;9707;49.158;8.632;2023-07-13T06:54:01;100548.38;;;28.82;31.12
19150;BME280;9707;49.158;8.632;2023-07-13T06:56:26;100554.75;;;28.83;30.76
19150;BME280;9707;49.158;8.632;2023-07-13T06:58:51;100548.22;;;28.84;30.64
19150;BME280;9707;49.158;8.632;2023-07-13T07:01:17;100543.78;;;28.83;30.19
19150;BME280;9707;49.158;8.632;2023-07-13T07:03:42;100548.22;;;28.84;30.52
19150;BME280;9707;49.158;8.632;2023-07-13T07:06:17;100546.50;;;28.83;29.90
19150;BME280;9707;49.158;8.632;2023-07-13T07:08:43;100550.97;;;28.84;30.04
19150;BME280;9707;49.158;8.632;2023-07-13T07:11:15;100550.81;;;28.85;30.40
19150;BME280;9707;49.158;8.632;2023-07-13T07:13:41;100551.63;;;28.86;30.41
19150;BME280;9707;49.158;8.632;2023-07-13T07:16:06;100553.34;;;28.87;30.12
19150;BME280;9707;49.158;8.632;2023-07-13T07:18:32;100550.59;;;28.87;30.41
19150;BME280;9707;49.158;8.632;2023-07-13T07:20:57;100560.22;;;28.91;30.28
19150;BME280;9707;49.158;8.632;2023-07-13T07:23:22;100556.44;;;28.92;30.30
19150;BME280;9707;49.158;8.632;2023-07-13T07:25:47;100559.16;;;28.92;30.36
19150;BME280;9707;49.158;8.632;2023-07-13T07:28:15;100556.09;;;28.95;29.94
19150;BME280;9707;49.158;8.632;2023-07-13T07:30:46;100560.53;;;28.96;29.81
19150;BME280;9707;49.158;8.632;2023-07-13T07:33:12;100558.69;;;28.96;29.72
19150;BME280;9707;49.158;8.632;2023-07-13T07:35:37;100557.50;;;28.99;29.88
19150;BME280;9707;49.158;8.632;2023-07-13T07:38:02;100557.50;;;28.99;29.05
19150;BME280;9707;49.158;8.632;2023-07-13T07:40:28;100560.25;;;28.99;29.28
19150;BME280;9707;49.158;8.632;2023-07-13T07:42:53;100561.78;;;29.01;29.44
19150;BME280;9707;49.158;8.632;2023-07-13T07:45:19;100565.38;;;29.02;29.20
19150;BME280;9707;49.158;8.632;2023-07-13T07:47:45;100566.25;;;29.02;29.40
19150;BME280;9707;49.158;8.632;2023-07-13T07:50:10;100574.31;;;29.04;29.37
19150;BME280;9707;49.158;8.632;2023-07-13T07:52:35;100563.34;;;29.04;29.34
19150;BME280;9707;49.158;8.632;2023-07-13T07:55:01;100562.28;;;29.05;29.26
19150;BME280;9707;49.158;8.632;2023-07-13T07:57:26;100569.50;;;29.06;29.54
19150;BME280;9707;49.158;8.632;2023-07-13T07:59:51;100571.91;;;29.09;29.61
19150;BME280;9707;49.158;8.632;2023-07-13T08:02:17;100576.34;;;29.10;29.21
19150;BME280;9707;49.158;8.632;2023-07-13T08:04:42;100563.66;;;29.09;29.18
19150;BME280;9707;49.158;8.632;2023-07-13T08:07:08;100567.94;;;29.11;29.28
19150;BME280;9707;49.158;8.632;2023-07-13T08:09:34;100569.66;;;29.12;29.33
19150;BME280;9707;49.158;8.632;2023-07-13T08:11:59;100573.06;;;29.14;28.96
19150;BME280;9707;49.158;8.632;2023-07-13T08:14:25;100574.97;;;29.14;28.44
19150;BME280;9707;49.158;8.632;2023-07-13T08:16:50;100570.31;;;29.14;28.39
19150;BME280;9707;49.158;8.632;2023-07-13T08:19:15;100572.91;;;29.16;28.09
19150;BME280;9707;49.158;8.632;2023-07-13T08:21:41;100566.38;;;29.17;28.31
19150;BME280;9707;49.158;8.632;2023-07-13T08:24:08;100570.88;;;29.18;28.01
19150;BME280;9707;49.158;8.632;2023-07-13T08:26:33;100567.75;;;29.21;28.03
19150;BME280;9707;49.158;8.632;2023-07-13T08:28:59;100563.97;;;29.22;28.92
19150;BME280;9707;49.158;8.632;2023-07-13T08:31:24;100564.84;;;29.22;28.31
19150;BME280;9707;49.158;8.632;2023-07-13T08:33:50;100564.50;;;29.25;28.27
19150;BME280;9707;49.158;8.632;2023-07-13T08:36:15;100562.59;;;29.26;27.91
19150;BME280;9707;49.158;8.632;2023-07-13T08:38:40;100558.81;;;29.27;27.34
19150;BME280;9707;49.158;8.632;2023-07-13T08:41:13;100565.00;;;29.29;27.43
19150;BME280;9707;49.158;8.632;2023-07-13T08:43:39;100570.50;;;29.29;26.87
19150;BME280;9707;49.158;8.632;2023-07-13T08:48:52;100563.81;;;29.31;27.08
19150;BME280;9707;49.158;8.632;2023-07-13T08:51:44;100569.09;;;29.33;27.24
19150;BME280;9707;49.158;8.632;2023-07-13T08:54:33;100573.56;;;29.34;26.69
19150;BME280;9707;49.158;8.632;2023-07-13T08:57:02;100574.41;;;29.34;26.36
19150;BME280;9707;49.158;8.632;2023-07-13T08:59:31;100564.97;;;29.37;26.83
19150;BME280;9707;49.158;8.632;2023-07-13T09:07:39;100566.50;;;29.39;26.75
19150;BME280;9707;49.158;8.632;2023-07-13T09:10:15;100562.72;;;29.40;26.74
19150;BME280;9707;49.158;8.632;2023-07-13T09:13:00;100558.09;;;29.41;26.87
19150;BME280;9707;49.158;8.632;2023-07-13T09:15:39;100561.53;;;29.43;27.04
19150;BME280;9707;49.158;8.632;2023-07-13T09:18:10;100562.22;;;29.45;26.38
19150;BME280;9707;49.158;8.632;2023-07-13T09:21:10;100567.53;;;29.46;26.67
19150;BME280;9707;49.158;8.632;2023-07-13T09:23:37;100558.09;;;29.49;26.58
19150;BME280;9707;49.158;8.632;2023-07-13T09:28:40;100561.19;;;29.54;26.71
19150;BME280;9707;49.158;8.632;2023-07-13T09:31:19;100559.78;;;29.58;26.80
19150;BME280;9707;49.158;8.632;2023-07-13T09:33:46;100555.84;;;29.60;26.85
19150;BME280;9707;49.158;8.632;2023-07-13T09:38:48;100560.13;;;29.63;26.17
19150;BME280;9707;49.158;8.632;2023-07-13T09:41:21;100558.91;;;29.65;26.12
19150;BME280;9707;49.158;8.632;2023-07-13T09:44:13;100566.97;;;29.67;25.87
19150;BME280;9707;49.158;8.632;2023-07-13T09:46:44;100556.16;;;29.65;25.61
19150;BME280;9707;49.158;8.632;2023-07-13T09:49:11;100553.25;;;29.67;26.10
19150;BME280;9707;49.158;8.632;2023-07-13T09:51:45;100555.81;;;29.68;25.99
19150;BME280;9707;49.158;8.632;2023-07-13T09:54:23;100564.72;;;29.70;25.47
19150;BME280;9707;49.158;8.632;2023-07-13T09:56:59;100557.38;;;29.71;25.34
19150;BME280;9707;49.158;8.632;2023-07-13T09:59:35;100547.91;;;29.73;25.31
19150;BME280;9707;49.158;8.632;2023-07-13T10:02:26;100557.69;;;29.76;26.12
19150;BME280;9707;49.158;8.632;2023-07-13T10:05:03;100563.69;;;29.79;25.59
19150;BME280;9707;49.158;8.632;2023-07-13T10:07:31;100552.69;;;29.79;25.94
19150;BME280;9707;49.158;8.632;2023-07-13T10:09:58;100563.34;;;29.82;25.79
19150;BME280;9707;49.158;8.632;2023-07-13T10:12:26;100556.63;;;29.85;25.12
19150;BME280;9707;49.158;8.632;2023-07-13T10:14:54;100551.13;;;29.85;25.35
19150;BME280;9707;49.158;8.632;2023-07-13T10:17:28;100546.31;;;29.87;25.67
19150;BME280;9707;49.158;8.632;2023-07-13T10:19:58;100549.75;;;29.89;26.04
19150;BME280;9707;49.158;8.632;2023-07-13T10:22:28;100556.56;;;29.93;25.73
19150;BME280;9707;49.158;8.632;2023-07-13T10:24:57;100555.34;;;29.95;25.85
19150;BME280;9707;49.158;8.632;2023-07-13T10:27:30;100537.88;;;29.96;25.19
19150;BME280;9707;49.158;8.632;2023-07-13T10:30:21;100532.16;;;29.98;25.84
19150;BME280;9707;49.158;8.632;2023-07-13T10:32:49;100538.34;;;30.00;25.80
19150;BME280;9707;49.158;8.632;2023-07-13T10:35:16;100537.97;;;30.03;25.40
19150;BME280;9707;49.158;8.632;2023-07-13T10:37:57;100532.31;;;30.04;25.87
19150;BME280;9707;49.158;8.632;2023-07-13T10:40:34;100531.25;;;30.05;25.20
19150;BME280;9707;49.158;8.632;2023-07-13T10:43:02;100532.78;;;30.08;24.58
19150;BME280;9707;49.158;8.632;2023-07-13T10:45:34;100534.50;;;30.09;24.90
19150;BME280;9707;49.158;8.632;2023-07-13T10:48:00;100539.69;;;30.12;25.14
19150;BME280;9707;49.158;8.632;2023-07-13T10:50:28;100540.34;;;30.14;24.59
19150;BME280;9707;49.158;8.632;2023-07-13T10:53:01;100536.59;;;30.15;24.43
19150;BME280;9707;49.158;8.632;2023-07-13T10:55:55;100527.31;;;30.16;24.67
19150;BME280;9707;49.158;8.632;2023-07-13T10:58:42;100536.22;;;30.18;24.85
19150;BME280;9707;49.158;8.632;2023-07-13T11:01:39;100539.81;;;30.18;25.55
19150;BME280;9707;49.158;8.632;2023-07-13T11:04:04;100538.78;;;30.19;26.08
19150;BME280;9707;49.158;8.632;2023-07-13T11:06:41;100543.06;;;30.22;25.65
19150;BME280;9707;49.158;8.632;2023-07-13T11:09:32;100540.97;;;30.24;25.57
19150;BME280;9707;49.158;8.632;2023-07-13T11:12:10;100540.97;;;30.24;25.82
19150;BME280;9707;49.158;8.632;2023-07-13T11:23:15;100523.56;;;30.31;26.10
19150;BME280;9707;49.158;8.632;2023-07-13T11:25:43;100518.06;;;30.31;25.44
19150;BME280;9707;49.158;8.632;2023-07-13T11:36:12;100536.78;;;30.36;25.44
19150;BME280;9707;49.158;8.632;2023-07-13T11:38:47;100538.66;;;30.35;25.54
19150;BME280;9707;49.158;8.632;2023-07-13T11:41:31;100541.59;;;30.34;25.67
19150;BME280;9707;49.158;8.632;2023-07-13T11:44:20;100537.31;;;30.31;25.72
19150;BME280;9707;49.158;8.632;2023-07-13T11:46:54;100536.47;;;30.31;25.56
19150;BME280;9707;49.158;8.632;2023-07-13T11:49:24;100533.56;;;30.32;25.35
19150;BME280;9707;49.158;8.632;2023-07-13T11:51:52;100531.28;;;30.36;25.69
19150;BME280;9707;49.158;8.632;2023-07-13T11:56:54;100526.47;;;30.38;25.82
19150;BME280;9707;49.158;8.632;2023-07-13T11:59:20;100536.06;;;30.42;25.45
19150;BME280;9707;49.158;8.632;2023-07-13T12:01:51;100528.69;;;30.42;25.96
19150;BME280;9707;49.158;8.632;2023-07-13T12:04:27;100530.38;;;30.43;25.76
19150;BME280;9707;49.158;8.632;2023-07-13T12:07:04;100527.47;;;30.45;25.82
19150;BME280;9707;49.158;8.632;2023-07-13T12:09:29;100520.03;;;30.45;25.28
19150;BME280;9707;49.158;8.632;2023-07-13T12:11:56;100515.22;;;30.47;25.74
19150;BME280;9707;49.158;8.632;2023-07-13T12:14:23;100518.66;;;30.49;25.76
19150;BME280;9707;49.158;8.632;2023-07-13T12:16:51;100525.84;;;30.50;25.21
19150;BME280;9707;49.158;8.632;2023-07-13T12:19:20;100515.91;;;30.49;25.48
19150;BME280;9707;49.158;8.632;2023-07-13T12:21:46;100523.28;;;30.49;25.53
19150;BME280;9707;49.158;8.632;2023-07-13T12:24:17;100517.78;;;30.49;25.33
19150;BME280;9707;49.158;8.632;2023-07-13T12:26:44;100517.78;;;30.49;25.04
19150;BME280;9707;49.158;8.632;2023-07-13T12:29:16;100511.25;;;30.50;25.25
19150;BME280;9707;49.158;8.632;2023-07-13T12:31:44;100511.06;;;30.51;25.29
19150;BME280;9707;49.158;8.632;2023-07-13T12:34:17;100517.41;;;30.52;24.15
19150;BME280;9707;49.158;8.632;2023-07-13T12:36:59;100511.94;;;30.52;23.93
19150;BME280;9707;49.158;8.632;2023-07-13T12:39:32;100513.81;;;30.51;24.11
19150;BME280;9707;49.158;8.632;2023-07-13T12:42:18;100509.19;;;30.52;24.12
19150;BME280;9707;49.158;8.632;2023-07-13T12:44:46;100510.69;;;30.54;24.55
19150;BME280;9707;49.158;8.632;2023-07-13T12:47:13;100522.19;;;30.58;24.37
19150;BME280;9707;49.158;8.632;2023-07-13T12:49:42;100520.47;;;30.57;24.04
19150;BME280;9707;49.158;8.632;2023-07-13T12:52:17;100527.31;;;30.61;25.06
19150;BME280;9707;49.158;8.632;2023-07-13T12:54:52;100532.81;;;30.61;24.95
19150;BME280;9707;49.158;8.632;2023-07-13T12:57:18;100531.59;;;30.63;25.04
19150;BME280;9707;49.158;8.632;2023-07-13T12:59:43;100523.19;;;30.65;24.32
19150;BME280;9707;49.158;8.632;2023-07-13T13:02:23;100522.31;;;30.64;24.63
19150;BME280;9707;49.158;8.632;2023-07-13T13:04:51;100523.88;;;30.67;24.48
19150;BME280;9707;49.158;8.632;2023-07-13T13:07:17;100530.22;;;30.67;24.54
19150;BME280;9707;49.158;8.632;2023-07-13T13:09:45;100526.63;;;30.67;23.95
19150;BME280;9707;49.158;8.632;2023-07-13T13:12:10;100526.44;;;30.68;24.27
19150;BME280;9707;49.158;8.632;2023-07-13T13:14:35;100529.00;;;30.70;24.34
19150;BME280;9707;49.158;8.632;2023-07-13T13:17:01;100527.97;;;30.71;24.13
19150;BME280;9707;49.158;8.632;2023-07-13T13:19:28;100523.31;;;30.71;24.18
19150;BME280;9707;49.158;8.632;2023-07-13T13:21:55;100512.13;;;30.73;24.21
19150;BME280;9707;49.158;8.632;2023-07-13T13:24:28;100534.78;;;30.75;24.09
19150;BME280;9707;49.158;8.632;2023-07-13T13:26:54;100534.78;;;30.75;23.55
19150;BME280;9707;49.158;8.632;2023-07-13T13:29:24;100520.00;;;30.76;24.25
19150;BME280;9707;49.158;8.632;2023-07-13T13:31:50;100530.81;;;30.77;23.79
19150;BME280;9707;49.158;8.632;2023-07-13T13:34:17;100529.56;;;30.80;23.28
19150;BME280;9707;49.158;8.632;2023-07-13T13:36:44;100532.31;;;30.80;23.67
19150;BME280;9707;49.158;8.632;2023-07-13T13:39:20;100524.75;;;30.82;23.38